Time;durP1;ratioP1;P1;durP2;ratioP2;P2;SDS_P1;SDS_P2;PMS_P1;PMS_P2;Temp;Humidity;BMP_temperature;BMP_pressure;BME280_temperature;BME280_humidity;BME280_pressure;Samples;Min_cycle;Max_cycle;Signal;HPM_P1;HPM_P2
2023/08/06 00:02:16;;;;;;;;;;;;;;;;;;;;;
2023/08/06 00:18:51;;;;;;;;;;;;;;;;;;;;;
2023/08/06 00:22:09;;;;;;;;;;;;;;;;;;;;;
2023/08/06 00:25:42;;;;;;;;;;;;;;;;;;;;;
2023/08/06 00:35:11;;;;;;;;;;;;;;;;;;;;;
2023/08/06 00:38:16;;;;;;;;;;;;;;;-145.06;100.00;60892.56;4708410;29;19921;-93
2023/08/06 00:44:07;;;;;;;;;;;;;;;;;;;;;
2023/08/06 00:46:57;;;;;;;;;;;;;;;;;;;;;
2023/08/06 00:49:56;;;;;;;;;;;;;;;-145.06;100.00;60892.56;4702469;29;19916;-92
2023/08/06 00:52:47;;;;;;;;;;;;;;;-145.06;100.00;60892.56;4701635;29;19912;-94
2023/08/06 00:55:42;;;;;;;;;;;;;;;;;;;;;
2023/08/06 01:04:48;;;;;;;;;;;;;;;-145.06;100.00;60892.56;4693912;29;20387;-94
2023/08/06 01:07:53;;;;;;;;;;;;;;;-145.06;100.00;60892.56;4688108;29;19916;-93
2023/08/06 01:10:47;;;;;;;;;;;;;;;-145.06;100.00;60892.56;4686681;29;19916;-93
2023/08/06 01:13:32;;;;;;;;;;;;;;;-145.06;100.00;60892.56;4700378;29;19944;-93
2023/08/06 01:16:18;;;;;;;;;;;;;;;-145.06;100.00;60892.56;4686907;29;19920;-92
2023/08/06 01:19:26;;;;;;;;;;;;;;;-145.06;100.00;60892.56;4700660;29;19916;-94
2023/08/06 01:22:15;;;;;;;;;;;;;;;-145.06;100.00;60892.56;4686786;29;19920;-94
2023/08/06 01:24:57;;;;;;;;;;;;;;;-145.06;100.00;60892.56;4688628;29;20252;-93
2023/08/06 01:27:49;;;;;;;;;;;;;;;-145.06;100.00;60892.56;4687580;29;20007;-94
2023/08/06 01:30:48;;;;;;;;;;;;;;;-145.06;100.00;60892.56;4690261;29;19919;-92
2023/08/06 01:33:43;;;;;;;;;;;;;;;;;;;;;
2023/08/06 01:36:25;;;;;;;;;;;;;;;-145.06;100.00;60892.56;4724970;29;19920;-93
2023/08/06 01:42:07;;;;;;;;;;;;;;;-145.06;100.00;60892.56;4716814;29;19951;-93
2023/08/06 01:44:51;;;;;;;;;;;;;;;-145.06;100.00;60892.56;4718199;29;20303;-94
2023/08/06 01:47:43;;;;;;;;;;;;;;;;;;;;;
2023/08/06 01:50:24;;;;;;;;;;;;;;;17.14;100.00;60892.56;4720977;29;19920;-93
2023/08/06 01:53:11;;;;;;;;;;;;;;;-145.06;100.00;60892.56;4717892;29;19975;-94
2023/08/06 01:55:55;;;;;;;;;;;;;;;-145.06;100.00;60892.56;4717181;29;20363;-95
2023/08/06 01:58:44;;;;;;;;;;;;;;;-145.06;100.00;60892.56;4717415;29;19916;-93
2023/08/06 02:01:24;;;;;;;;;;;;;;;-145.06;100.00;60892.56;4704258;29;20358;-93
2023/08/06 02:04:07;;;;;;;;;;;;;;;-145.06;100.00;60892.56;4717050;29;19916;-94
2023/08/06 02:06:56;;;;;;;;;;;;;;;-145.06;100.00;60892.56;4716338;29;19916;-93
2023/08/06 02:09:43;;;;;;;;;;;;;;;-145.06;100.00;60892.56;4717461;29;19920;-94
2023/08/06 02:12:31;;;;;;;;;;;;;;;-145.06;100.00;60892.56;4717074;29;19912;-93
2023/08/06 02:15:13;;;;;;;;;;;;;;;-145.06;100.00;60892.56;4716936;29;19919;-94
2023/08/06 02:17:55;;;;;;;;;;;;;;;-145.06;100.00;60892.56;4716666;29;19967;-92
2023/08/06 02:20:42;;;;;;;;;;;;;;;-145.06;100.00;60892.56;4714737;29;19951;-93
2023/08/06 02:23:24;;;;;;;;;;;;;;;-145.06;100.00;60892.56;4717362;29;19920;-93
2023/08/06 02:26:04;;;;;;;;;;;;;;;-145.06;100.00;60892.56;4717282;29;19955;-94
2023/08/06 02:28:56;;;;;;;;;;;;;;;-145.06;100.00;60892.56;4716180;29;20299;-93
2023/08/06 02:31:36;;;;;;;;;;;;;;;-145.06;100.00;60892.56;4716459;29;19983;-94
2023/08/06 02:34:17;;;;;;;;;;;;;;;-145.06;100.00;60892.56;4716708;29;19955;-93
2023/08/06 02:36:59;;;;;;;;;;;;;;;-145.06;100.00;60892.56;4716542;29;19928;-93
2023/08/06 02:39:43;;;;;;;;;;;;;;;-145.06;100.00;60892.56;4716134;29;19924;-92
2023/08/06 02:42:23;;;;;;;;;;;;;;;-145.06;100.00;60892.56;4703546;29;19916;-92
2023/08/06 02:45:04;;;;;;;;;;;;;;;-145.06;100.00;60892.56;4702711;29;19920;-91
2023/08/06 02:47:48;;;;;;;;;;;;;;;-145.06;100.00;60892.56;4702455;29;20002;-93
2023/08/06 02:50:30;;;;;;;;;;;;;;;-145.06;100.00;60892.56;4702148;29;19915;-93
2023/08/06 02:53:16;;;;;;;;;;;;;;;-145.06;100.00;60892.56;4702001;29;20565;-93
2023/08/06 02:55:58;;;;;;;;;;;;;;;-145.06;100.00;60892.56;4702077;29;19920;-92
2023/08/06 02:58:37;;;;;;;;;;;;;;;-145.06;100.00;60892.56;4702377;29;19916;-93
2023/08/06 03:01:26;;;;;;;;;;;;;;;-145.06;100.00;60892.56;4701698;29;19916;-92
2023/08/06 03:04:07;;;;;;;;;;;;;;;-145.06;100.00;60892.56;4702776;29;20248;-93
2023/08/06 03:06:46;;;;;;;;;;;;;;;-145.06;100.00;60892.56;4697989;29;19916;-92
2023/08/06 03:09:25;;;;;;;;;;;;;;;-145.06;100.00;60892.56;4684153;29;19955;-93
2023/08/06 03:12:06;;;;;;;;;;;;;;;-145.06;100.00;60892.56;4683984;29;19912;-94
2023/08/06 03:14:56;;;;;;;;;;;;;;;-145.06;100.00;60892.56;4683313;29;19983;-93
2023/08/06 03:17:37;;;;;;;;;;;;;;;-145.06;100.00;60892.56;4683676;29;19920;-92
2023/08/06 03:20:16;;;;;;;;;;;;;;;-145.06;100.00;60892.56;4684527;29;19916;-92
2023/08/06 03:22:55;;;;;;;;;;;;;;;-145.06;100.00;60892.56;4688841;29;19920;-94
2023/08/06 03:25:37;;;;;;;;;;;;;;;-145.06;100.00;60892.56;4688343;29;19924;-92
2023/08/06 03:28:18;;;;;;;;;;;;;;;-145.06;100.00;60892.56;4687247;29;19916;-92
2023/08/06 03:31:06;;;;;;;;;;;;;;;-145.06;100.00;60892.56;4687201;29;19916;-92
2023/08/06 03:33:47;;;;;;;;;;;;;;;-145.06;100.00;60892.56;4700463;29;19916;-91
2023/08/06 03:36:26;;;;;;;;;;;;;;;-145.06;100.00;60892.56;4687287;29;19921;-94
2023/08/06 03:39:08;;;;;;;;;;;;;;;-145.06;100.00;60892.56;4703808;29;20252;-94
2023/08/06 03:41:56;;;;;;;;;;;;;;;-145.06;100.00;60892.56;4701774;29;19920;-91
2023/08/06 03:45:04;;;;;;;;;;;;;;;-145.06;100.00;60892.56;4688481;29;20253;-93
2023/08/06 03:47:43;;;;;;;;;;;;;;;-145.06;100.00;60892.56;4687377;29;19920;-92
2023/08/06 03:50:24;;;;;;;;;;;;;;;-145.06;100.00;60892.56;4702893;29;20367;-93
2023/08/06 03:53:08;;;;;;;;;;;;;;;-145.06;100.00;60892.56;4709735;29;19916;-93
2023/08/06 03:56:00;;;;;;;;;;;;;;;-145.06;100.00;60892.56;4706008;29;20498;-94
2023/08/06 03:58:58;;;;;;;;;;;;;;;-145.06;100.00;60892.56;4715250;29;19983;-93
2023/08/06 04:01:51;;;;;;;;;;;;;;;-145.06;100.00;60892.56;4716847;29;19916;-93
2023/08/06 04:08:02;;;;;;;;;;;;;;;-145.06;100.00;60892.56;4704234;29;19959;-94
2023/08/06 04:11:13;;;;;;;;;;;;;;;17.12;100.00;60892.56;4701072;29;19916;-94
2023/08/06 04:14:02;;;;;;;;;;;;;;;-145.06;100.00;60892.56;4694217;29;19971;-92
2023/08/06 04:16:44;;;;;;;;;;;;;;;-145.06;100.00;60892.56;4708266;29;19987;-92
2023/08/06 04:19:23;;;;;;;;;;;;;;;-145.06;100.00;60892.56;4701250;29;19916;-93
2023/08/06 04:22:12;;;;;;;;;;;;;;;-145.06;100.00;60892.56;4701230;29;19920;-94
2023/08/06 04:25:20;;;;;;;;;;;;;;;-145.06;100.00;60892.56;4693689;29;19920;-92
2023/08/06 04:28:02;;;;;;;;;;;;;;;-145.06;100.00;60892.56;4703022;29;19920;-93
2023/08/06 04:30:41;;;;;;;;;;;;;;;-145.06;100.00;60892.56;4701346;29;19916;-91
2023/08/06 04:33:22;;;;;;;;;;;;;;;17.07;100.00;60892.56;4686071;29;20410;-92
2023/08/06 04:36:02;;;;;;;;;;;;;;;-145.06;100.00;60892.56;4699115;29;19924;-92
2023/08/06 04:38:44;;;;;;;;;;;;;;;-145.06;100.00;60892.56;4705180;29;19920;-92
2023/08/06 04:41:23;;;;;;;;;;;;;;;-145.06;100.00;60892.56;4693494;29;19999;-92
2023/08/06 04:44:04;;;;;;;;;;;;;;;-145.06;100.00;60892.56;4703798;29;19951;-93
2023/08/06 04:46:54;;;;;;;;;;;;;;;;;;;;;
2023/08/06 04:49:33;;;;;;;;;;;;;;;-145.06;100.00;60892.56;4726351;29;19916;-93
2023/08/06 04:52:12;;;;;;;;;;;;;;;-145.06;100.00;60892.56;4709095;29;19916;-92
2023/08/06 04:54:54;;;;;;;;;;;;;;;-145.06;100.00;60892.56;4700192;29;19920;-91
2023/08/06 04:57:36;;;;;;;;;;;;;;;-145.06;100.00;60892.56;4694225;29;20288;-92
2023/08/06 05:00:18;;;;;;;;;;;;;;;-145.06;100.00;60892.56;4684796;29;19920;-93
2023/08/06 05:03:02;;;;;;;;;;;;;;;-145.06;100.00;60892.56;4689578;29;19916;-94
2023/08/06 05:05:42;;;;;;;;;;;;;;;-145.06;100.00;60892.56;4714812;29;19955;-93
2023/08/06 05:08:21;;;;;;;;;;;;;;;16.96;100.00;60892.56;4711876;29;20309;-93
2023/08/06 05:11:02;;;;;;;;;;;;;;;-145.06;100.00;60892.56;4710498;29;19951;-91
2023/08/06 05:13:42;;;;;;;;;;;;;;;-145.06;100.00;60892.56;4688749;29;19920;-89
2023/08/06 05:16:21;;;;;;;;;;;;;;;-145.06;100.00;60892.56;4692341;29;20268;-92
